createdAt,value
2018-05-29T00:00:49.974Z,12.80
2018-05-29T00:03:17.442Z,12.80
2018-05-29T00:05:45.196Z,13.90
2018-05-29T00:08:12.675Z,12.90
2018-05-29T00:10:40.190Z,13.20
2018-05-29T00:13:07.658Z,13.90
2018-05-29T00:15:35.158Z,14.97
2018-05-29T00:18:02.640Z,13.23
2018-05-29T00:20:30.102Z,15.00
2018-05-29T00:22:57.793Z,20.40
2018-05-29T00:25:25.296Z,15.83
2018-05-29T00:27:53.091Z,14.40
2018-05-29T00:30:20.525Z,14.40
2018-05-29T00:32:48.039Z,15.00
2018-05-29T00:35:15.512Z,13.53
2018-05-29T00:37:43.232Z,15.57
2018-05-29T00:40:10.699Z,15.27
2018-05-29T00:42:38.183Z,14.00
2018-05-29T00:45:05.662Z,16.17
2018-05-29T00:47:33.145Z,15.03
2018-05-29T00:50:00.629Z,15.60
2018-05-29T00:52:28.094Z,14.80
2018-05-29T00:55:08.336Z,14.30
2018-05-29T00:57:35.819Z,15.50
2018-05-29T01:00:03.290Z,16.20
2018-05-29T01:02:30.757Z,16.83
2018-05-29T01:04:58.475Z,16.00
2018-05-29T01:07:25.950Z,16.67
2018-05-29T01:09:53.700Z,15.43
2018-05-29T01:12:21.166Z,14.93
2018-05-29T01:14:48.635Z,16.00
2018-05-29T01:17:16.383Z,16.50
2018-05-29T01:19:43.846Z,16.10
2018-05-29T01:22:11.611Z,16.13
2018-05-29T01:24:39.096Z,16.97
2018-05-29T01:27:06.826Z,17.33
2018-05-29T01:29:34.290Z,17.57
2018-05-29T01:32:01.779Z,16.20
2018-05-29T01:34:29.245Z,16.20
2018-05-29T01:36:56.739Z,16.33
2018-05-29T01:39:24.211Z,16.37
2018-05-29T01:41:51.675Z,18.20
2018-05-29T01:44:19.359Z,17.37
2018-05-29T01:46:46.854Z,16.93
2018-05-29T01:49:14.327Z,16.70
2018-05-29T01:51:41.850Z,16.40
2018-05-29T01:54:10.099Z,17.50
2018-05-29T01:56:37.562Z,17.40
2018-05-29T01:59:05.810Z,18.47
2018-05-29T02:01:33.311Z,19.87
2018-05-29T02:04:00.773Z,18.40
2018-05-29T02:06:28.253Z,16.60
2018-05-29T02:08:55.721Z,17.30
2018-05-29T02:11:23.192Z,18.40
2018-05-29T02:13:50.663Z,19.23
2018-05-29T02:16:18.137Z,18.50
2018-05-29T02:18:45.603Z,18.77
2018-05-29T02:21:13.362Z,19.30
2018-05-29T02:23:40.837Z,17.73
2018-05-29T02:26:08.499Z,18.43
2018-05-29T02:28:36.041Z,20.33
2018-05-29T02:31:03.519Z,18.93
2018-05-29T02:33:31.266Z,19.23
2018-05-29T02:35:59.042Z,19.87
2018-05-29T02:38:26.533Z,20.03
2018-05-29T02:40:54.254Z,19.30
2018-05-29T02:43:21.730Z,20.00
2018-05-29T02:45:49.198Z,19.63
2018-05-29T02:48:16.963Z,21.13
2018-05-29T02:50:44.749Z,20.30
2018-05-29T02:53:12.390Z,22.10
2018-05-29T02:55:39.872Z,22.33
2018-05-29T02:58:07.350Z,19.50
2018-05-29T03:00:34.847Z,22.67
2018-05-29T03:03:02.314Z,21.20
2018-05-29T03:05:30.066Z,21.90
2018-05-29T03:07:57.590Z,20.70
2018-05-29T03:10:25.221Z,21.20
2018-05-29T03:12:52.698Z,19.93
2018-05-29T03:15:20.175Z,21.30
2018-05-29T03:17:47.751Z,20.90
2018-05-29T03:20:15.315Z,21.67
2018-05-29T03:22:42.788Z,22.50
2018-05-29T03:25:10.283Z,21.70
2018-05-29T03:27:37.775Z,20.87
2018-05-29T03:30:05.256Z,22.47
2018-05-29T03:32:34.285Z,22.13
2018-05-29T03:35:01.757Z,23.00
2018-05-29T03:37:29.234Z,21.50
2018-05-29T03:39:56.699Z,22.90
2018-05-29T03:42:24.336Z,21.20
2018-05-29T03:44:51.822Z,23.23
2018-05-29T03:47:19.283Z,21.40
2018-05-29T03:49:46.784Z,23.03
2018-05-29T03:52:14.272Z,24.13
2018-05-29T03:54:41.770Z,24.13
2018-05-29T03:57:09.317Z,23.13
2018-05-29T03:59:36.863Z,23.60
2018-05-29T04:02:04.349Z,22.80
2018-05-29T04:04:31.958Z,22.90
2018-05-29T04:06:59.497Z,22.03
2018-05-29T04:09:27.032Z,22.93
2018-05-29T04:11:54.482Z,24.40
2018-05-29T04:14:21.963Z,22.47
2018-05-29T04:16:49.431Z,24.10
2018-05-29T04:19:16.899Z,23.70
2018-05-29T04:21:44.376Z,24.97
2018-05-29T04:24:11.896Z,24.50
2018-05-29T04:26:39.489Z,24.50
2018-05-29T04:29:07.026Z,26.50
2018-05-29T04:31:34.782Z,24.87
2018-05-29T04:34:02.262Z,24.10
2018-05-29T04:36:30.037Z,22.40
2018-05-29T04:38:57.558Z,22.50
2018-05-29T04:41:25.085Z,24.23
2018-05-29T04:43:52.635Z,23.60
2018-05-29T04:46:20.133Z,23.40
2018-05-29T04:48:47.616Z,24.70
2018-05-29T04:51:15.154Z,23.00
2018-05-29T04:53:42.673Z,24.47
2018-05-29T04:56:10.196Z,24.30
2018-05-29T04:58:37.671Z,25.77
2018-05-29T05:01:05.181Z,24.67
2018-05-29T05:03:32.647Z,23.60
2018-05-29T05:06:00.127Z,25.37
2018-05-29T05:08:27.667Z,23.97
2018-05-29T05:10:55.158Z,24.10
2018-05-29T05:13:23.395Z,25.60
2018-05-29T05:15:51.254Z,24.73
2018-05-29T05:18:19.003Z,24.97
2018-05-29T05:20:46.500Z,25.57
2018-05-29T05:23:14.013Z,25.03
2018-05-29T05:25:41.631Z,27.43
2018-05-29T05:28:09.128Z,24.53
2018-05-29T05:30:36.725Z,27.70
2018-05-29T05:33:04.210Z,27.87
2018-05-29T05:35:33.192Z,27.07
2018-05-29T05:38:01.022Z,26.63
2018-05-29T05:40:28.559Z,25.20
2018-05-29T05:42:56.067Z,26.33
2018-05-29T05:45:23.579Z,26.30
2018-05-29T05:47:52.475Z,25.23
2018-05-29T05:50:20.252Z,26.20
2018-05-29T05:52:47.787Z,23.57
2018-05-29T05:55:16.149Z,24.27
2018-05-29T05:57:43.729Z,24.27
2018-05-29T06:00:11.262Z,24.80
2018-05-29T06:02:38.750Z,25.23
2018-05-29T06:05:06.228Z,25.43
2018-05-29T06:07:33.690Z,25.90
2018-05-29T06:10:01.163Z,24.00
2018-05-29T06:12:28.634Z,25.40
2018-05-29T06:14:56.328Z,25.67
2018-05-29T06:17:23.902Z,24.63
2018-05-29T06:19:52.134Z,23.63
2018-05-29T06:22:19.643Z,23.80
2018-05-29T06:24:47.128Z,23.73
2018-05-29T06:27:15.911Z,24.60
2018-05-29T06:29:43.375Z,23.90
2018-05-29T06:32:10.872Z,23.53
2018-05-29T06:34:38.387Z,23.63
2018-05-29T06:37:05.858Z,23.23
2018-05-29T06:39:33.366Z,19.87
2018-05-29T06:42:00.880Z,21.07
2018-05-29T06:44:28.494Z,23.23
2018-05-29T06:46:56.039Z,21.77
2018-05-29T06:49:23.506Z,21.43
2018-05-29T06:51:51.279Z,23.20
2018-05-29T06:54:19.027Z,21.60
2018-05-29T06:56:46.601Z,20.50
2018-05-29T06:59:14.852Z,20.80
2018-05-29T07:01:42.513Z,20.83
2018-05-29T07:04:10.006Z,20.43
2018-05-29T07:06:37.511Z,20.57
2018-05-29T07:09:05.108Z,19.13
2018-05-29T07:11:32.574Z,21.10
2018-05-29T07:14:00.821Z,19.37
2018-05-29T07:16:28.307Z,20.53
2018-05-29T07:18:55.818Z,18.83
2018-05-29T07:21:23.527Z,29.17
2018-05-29T07:23:51.011Z,18.57
2018-05-29T07:26:19.238Z,20.00
2018-05-29T07:28:46.719Z,19.10
2018-05-29T07:31:14.994Z,18.70
2018-05-29T07:33:42.470Z,18.80
2018-05-29T07:36:10.733Z,17.90
2018-05-29T07:38:38.236Z,18.90
2018-05-29T07:41:05.707Z,17.50
2018-05-29T07:43:33.212Z,18.50
2018-05-29T07:46:00.739Z,16.73
2018-05-29T07:48:28.286Z,19.23
2018-05-29T07:50:55.801Z,17.33
2018-05-29T07:53:23.380Z,18.97
2018-05-29T07:55:51.680Z,15.80
2018-05-29T07:58:19.267Z,16.30
2018-05-29T08:00:46.847Z,14.97
2018-05-29T08:03:14.614Z,16.07
2018-05-29T08:05:42.374Z,18.23
2018-05-29T08:08:09.904Z,16.30
2018-05-29T08:10:37.504Z,16.10
2018-05-29T08:13:05.059Z,16.47
2018-05-29T08:15:32.815Z,16.73
2018-05-29T08:18:00.286Z,15.90
2018-05-29T08:20:27.747Z,15.63
2018-05-29T08:22:55.503Z,14.10
2018-05-29T08:25:23.278Z,14.53
2018-05-29T08:27:51.360Z,13.57
2018-05-29T08:30:18.835Z,15.30
2018-05-29T08:32:46.294Z,13.87
2018-05-29T08:35:13.868Z,14.57
2018-05-29T08:37:41.435Z,13.23
2018-05-29T08:40:08.911Z,13.10
2018-05-29T08:42:36.370Z,14.10
2018-05-29T08:45:03.843Z,13.47
2018-05-29T08:47:31.307Z,11.93
2018-05-29T08:49:59.074Z,11.67
2018-05-29T08:52:26.839Z,13.90
2018-05-29T08:54:54.606Z,12.53
2018-05-29T08:57:22.346Z,12.53
2018-05-29T08:59:49.818Z,11.80
2018-05-29T09:02:17.323Z,12.37
2018-05-29T09:04:44.787Z,11.93
2018-05-29T09:07:12.527Z,12.33
2018-05-29T09:09:40.262Z,13.47
2018-05-29T09:12:07.747Z,13.47
2018-05-29T09:14:36.731Z,10.90
2018-05-29T09:17:05.726Z,10.63
2018-05-29T09:19:33.199Z,11.37
2018-05-29T09:22:00.943Z,10.97
2018-05-29T09:24:30.224Z,10.60
2018-05-29T09:26:57.741Z,10.63
2018-05-29T09:29:25.482Z,9.77
2018-05-29T09:31:53.018Z,9.47
2018-05-29T09:34:20.479Z,8.83
2018-05-29T09:36:47.948Z,9.30
2018-05-29T09:39:15.617Z,8.50
2018-05-29T09:41:44.623Z,9.80
2018-05-29T09:44:12.083Z,7.53
2018-05-29T09:46:39.751Z,8.30
2018-05-29T09:49:07.288Z,10.70
2018-05-29T09:51:34.776Z,8.73
2018-05-29T09:54:02.252Z,7.17
2018-05-29T09:56:30.012Z,8.20
2018-05-29T09:58:57.448Z,8.33
2018-05-29T10:01:24.922Z,8.60
2018-05-29T10:03:52.377Z,7.37
2018-05-29T10:06:19.854Z,8.07
2018-05-29T10:08:47.323Z,7.40
2018-05-29T10:11:14.849Z,7.00
2018-05-29T10:13:42.306Z,7.20
2018-05-29T10:16:10.551Z,8.17
2018-05-29T10:18:38.003Z,7.80
2018-05-29T10:21:05.469Z,7.90
2018-05-29T10:23:33.235Z,8.50
2018-05-29T10:26:01.270Z,10.33
2018-05-29T10:28:28.738Z,8.40
2018-05-29T10:30:56.213Z,7.20
2018-05-29T10:33:23.673Z,8.73
2018-05-29T10:35:51.134Z,8.50
2018-05-29T10:38:18.607Z,7.40
2018-05-29T10:40:46.071Z,7.27
2018-05-29T10:43:13.818Z,7.40
2018-05-29T10:45:41.277Z,7.10
2018-05-29T10:48:10.242Z,7.80
2018-05-29T10:50:37.722Z,7.60
2018-05-29T10:53:05.186Z,7.40
2018-05-29T10:55:32.674Z,6.77
2018-05-29T10:58:00.139Z,6.77
2018-05-29T11:00:27.608Z,7.83
2018-05-29T11:02:55.074Z,7.60
2018-05-29T11:05:22.527Z,7.20
2018-05-29T11:07:50.362Z,9.77
2018-05-29T11:10:18.001Z,8.70
2018-05-29T11:12:45.787Z,11.63
2018-05-29T11:15:13.388Z,7.70
2018-05-29T11:17:40.980Z,10.83
2018-05-29T11:20:08.455Z,10.77
2018-05-29T11:22:35.922Z,13.03
2018-05-29T11:25:03.387Z,8.80
2018-05-29T11:27:31.142Z,9.93
2018-05-29T11:29:58.598Z,8.10
2018-05-29T11:32:26.280Z,8.87
2018-05-29T11:34:53.766Z,8.73
2018-05-29T11:37:21.227Z,8.93
2018-05-29T11:39:48.700Z,7.67
2018-05-29T11:42:16.166Z,6.90
2018-05-29T11:44:43.664Z,7.90
2018-05-29T11:47:11.144Z,7.83
2018-05-29T11:49:38.624Z,8.10
2018-05-29T11:52:06.342Z,7.57
2018-05-29T11:54:33.867Z,7.97
2018-05-29T11:57:01.340Z,7.00
2018-05-29T11:59:28.972Z,6.47
2018-05-29T12:01:56.433Z,6.20
2018-05-29T12:04:23.935Z,6.00
2018-05-29T12:06:51.426Z,6.20
2018-05-29T12:09:18.882Z,6.33
2018-05-29T12:11:46.362Z,6.97
2018-05-29T12:14:13.851Z,6.07
2018-05-29T12:16:41.331Z,6.50
2018-05-29T12:19:08.828Z,6.40
2018-05-29T12:21:36.299Z,6.80
2018-05-29T12:24:03.775Z,6.40
2018-05-29T12:26:31.310Z,5.70
2018-05-29T12:28:58.784Z,5.13
2018-05-29T12:31:26.290Z,5.33
2018-05-29T12:33:53.750Z,5.00
2018-05-29T12:36:21.299Z,5.10
2018-05-29T12:38:48.809Z,5.40
2018-05-29T12:41:16.574Z,5.20
2018-05-29T12:43:44.088Z,5.80
2018-05-29T12:46:11.637Z,5.73
2018-05-29T12:48:39.047Z,5.67
2018-05-29T12:51:06.553Z,4.90
2018-05-29T12:53:34.027Z,4.43
2018-05-29T12:56:01.505Z,5.77
2018-05-29T12:58:29.079Z,5.37
2018-05-29T13:00:56.554Z,5.97
2018-05-29T13:03:24.020Z,5.73
2018-05-29T13:05:51.507Z,5.57
2018-05-29T13:08:19.022Z,5.03
2018-05-29T13:10:46.512Z,5.27
2018-05-29T13:13:13.982Z,5.77
2018-05-29T13:15:41.459Z,5.80
2018-05-29T13:18:08.940Z,6.13
2018-05-29T13:20:36.402Z,5.87
2018-05-29T13:23:03.871Z,5.60
2018-05-29T13:25:31.336Z,5.70
2018-05-29T13:27:59.140Z,6.60
2018-05-29T13:30:26.602Z,6.50
2018-05-29T13:32:54.070Z,6.90
2018-05-29T13:35:21.648Z,7.70
2018-05-29T13:37:49.125Z,7.77
2018-05-29T13:40:16.642Z,7.60
2018-05-29T13:42:44.120Z,7.50
2018-05-29T13:45:11.585Z,7.43
2018-05-29T13:47:39.085Z,7.70
2018-05-29T13:50:06.574Z,7.77
2018-05-29T13:52:34.256Z,7.60
2018-05-29T13:55:02.010Z,8.43
2018-05-29T13:57:30.310Z,8.10
2018-05-29T13:59:57.843Z,8.23
2018-05-29T14:02:25.593Z,7.70
2018-05-29T14:04:53.057Z,7.23
2018-05-29T14:07:20.574Z,6.90
2018-05-29T14:09:48.035Z,9.43
2018-05-29T14:12:15.502Z,8.47
2018-05-29T14:14:43.358Z,8.63
2018-05-29T14:17:10.832Z,9.20
2018-05-29T14:19:38.346Z,9.50
2018-05-29T14:22:05.804Z,8.73
2018-05-29T14:24:33.286Z,9.77
2018-05-29T14:27:00.748Z,10.70
2018-05-29T14:29:29.179Z,9.10
2018-05-29T14:31:56.663Z,10.87
2018-05-29T14:34:24.133Z,10.20
2018-05-29T14:36:51.627Z,10.50
2018-05-29T14:39:19.102Z,11.50
2018-05-29T14:41:46.571Z,11.50
2018-05-29T14:44:14.085Z,11.37
2018-05-29T14:46:42.329Z,11.77
2018-05-29T14:49:10.017Z,11.53
2018-05-29T14:51:37.534Z,12.80
2018-05-29T14:54:05.017Z,10.50
2018-05-29T14:56:32.498Z,11.50
2018-05-29T14:58:59.974Z,11.00
2018-05-29T15:01:27.607Z,10.77
2018-05-29T15:03:55.076Z,10.40
2018-05-29T15:06:22.578Z,10.30
2018-05-29T15:08:50.047Z,10.47
2018-05-29T15:11:17.822Z,11.73
2018-05-29T15:13:45.328Z,11.20
2018-05-29T15:16:12.843Z,11.23
2018-05-29T15:18:40.464Z,12.37
2018-05-29T15:21:08.061Z,13.75
2018-05-29T15:23:36.357Z,13.50
2018-05-29T15:26:03.913Z,13.57
2018-05-29T15:28:31.693Z,12.87
2018-05-29T15:30:59.198Z,13.43
2018-05-29T15:33:26.670Z,13.07
2018-05-29T15:35:54.266Z,14.80
2018-05-29T15:38:21.752Z,11.97
2018-05-29T15:40:49.278Z,12.90
2018-05-29T15:43:16.744Z,13.07
2018-05-29T15:45:44.387Z,11.70
2018-05-29T15:48:11.957Z,13.13
2018-05-29T15:50:40.208Z,12.00
2018-05-29T15:53:07.710Z,11.97
2018-05-29T15:55:35.197Z,11.37
2018-05-29T15:58:02.919Z,10.90
2018-05-29T16:00:30.699Z,14.20
2018-05-29T16:02:58.191Z,12.73
2018-05-29T16:05:25.915Z,16.60
2018-05-29T16:07:53.655Z,17.17
2018-05-29T16:10:21.131Z,16.00
2018-05-29T16:12:48.616Z,16.17
2018-05-29T16:15:16.085Z,15.83
2018-05-29T16:17:43.572Z,15.63
2018-05-29T16:20:11.046Z,11.93
2018-05-29T16:22:38.535Z,11.03
2018-05-29T16:25:05.998Z,12.97
2018-05-29T16:27:33.709Z,10.10
2018-05-29T16:30:01.227Z,11.10
2018-05-29T16:32:28.789Z,10.80
2018-05-29T16:34:56.339Z,12.03
2018-05-29T16:37:23.808Z,10.63
2018-05-29T16:39:51.275Z,11.00
2018-05-29T16:42:18.914Z,11.90
2018-05-29T16:44:46.395Z,10.80
2018-05-29T16:47:13.875Z,11.47
2018-05-29T16:49:41.341Z,11.63
2018-05-29T16:52:09.125Z,13.23
2018-05-29T16:54:36.592Z,12.27
2018-05-29T16:57:04.066Z,11.60
2018-05-29T16:59:31.806Z,11.70
2018-05-29T17:01:59.575Z,12.60
2018-05-29T17:04:27.348Z,13.10
2018-05-29T17:06:54.823Z,12.77
2018-05-29T17:09:22.310Z,11.97
2018-05-29T17:11:49.882Z,10.67
2018-05-29T17:14:17.482Z,10.00
2018-05-29T17:16:44.964Z,10.60
2018-05-29T17:19:12.707Z,10.67
2018-05-29T17:21:40.470Z,8.90
2018-05-29T17:24:08.235Z,10.37
2018-05-29T17:26:35.919Z,7.40
2018-05-29T17:29:03.374Z,9.10
2018-05-29T17:31:30.838Z,8.27
2018-05-29T17:33:58.307Z,9.17
2018-05-29T17:36:25.774Z,8.40
2018-05-29T17:38:53.235Z,11.43
2018-05-29T17:41:20.698Z,10.30
2018-05-29T17:43:48.173Z,8.43
2018-05-29T17:46:15.643Z,8.27
2018-05-29T17:48:43.100Z,9.10
2018-05-29T17:51:10.566Z,9.07
2018-05-29T17:53:38.068Z,9.67
2018-05-29T17:56:05.611Z,9.47
2018-05-29T17:58:33.839Z,8.53
2018-05-29T18:01:01.330Z,8.30
2018-05-29T18:03:28.794Z,9.83
2018-05-29T18:05:56.260Z,8.80
2018-05-29T18:08:23.972Z,8.70
2018-05-29T18:10:51.444Z,8.83
2018-05-29T18:13:19.053Z,10.60
2018-05-29T18:15:46.467Z,9.07
2018-05-29T18:18:14.082Z,8.83
2018-05-29T18:20:41.558Z,13.23
2018-05-29T18:23:09.026Z,14.20
2018-05-29T18:25:36.838Z,12.73
2018-05-29T18:28:04.310Z,11.27
2018-05-29T18:30:31.985Z,11.20
2018-05-29T18:32:59.521Z,10.90
2018-05-29T18:35:26.983Z,9.80
2018-05-29T18:37:54.757Z,11.17
2018-05-29T18:40:22.995Z,11.40
2018-05-29T18:42:50.475Z,12.87
2018-05-29T18:45:18.034Z,13.33
2018-05-29T18:47:45.878Z,14.00
2018-05-29T18:50:13.368Z,15.00
2018-05-29T18:52:40.827Z,13.87
2018-05-29T18:55:08.302Z,11.17
2018-05-29T18:57:36.858Z,12.57
2018-05-29T19:00:04.324Z,11.03
2018-05-29T19:02:31.796Z,11.10
2018-05-29T19:04:59.480Z,11.70
2018-05-29T19:07:26.939Z,10.90
2018-05-29T19:09:54.457Z,11.33
2018-05-29T19:12:21.946Z,9.73
2018-05-29T19:14:49.410Z,10.93
2018-05-29T19:17:16.909Z,10.07
2018-05-29T19:19:44.748Z,10.53
2018-05-29T19:22:12.346Z,10.03
2018-05-29T19:24:40.099Z,10.37
2018-05-29T19:27:07.563Z,10.37
2018-05-29T19:29:35.092Z,11.57
2018-05-29T19:32:02.557Z,10.33
2018-05-29T19:34:30.032Z,10.20
2018-05-29T19:36:57.503Z,11.60
2018-05-29T19:39:25.187Z,11.63
2018-05-29T19:41:57.560Z,12.60
2018-05-29T19:44:25.074Z,14.57
2018-05-29T19:46:52.686Z,17.50
2018-05-29T19:49:20.238Z,31.10
2018-05-29T19:51:47.718Z,23.50
2018-05-29T19:54:15.230Z,16.80
2018-05-29T19:56:42.694Z,15.07
2018-05-29T19:59:10.323Z,16.50
2018-05-29T20:01:37.783Z,15.80
2018-05-29T20:04:05.258Z,19.33
2018-05-29T20:06:32.751Z,18.80
2018-05-29T20:09:00.211Z,18.50
2018-05-29T20:11:27.686Z,19.37
2018-05-29T20:13:55.150Z,16.07
2018-05-29T20:16:22.915Z,14.50
2018-05-29T20:18:50.650Z,19.60
2018-05-29T20:21:18.120Z,19.13
2018-05-29T20:23:45.631Z,17.33
2018-05-29T20:26:13.110Z,17.73
2018-05-29T20:28:40.579Z,18.40
2018-05-29T20:31:08.087Z,17.70
2018-05-29T20:33:35.544Z,18.03
2018-05-29T20:36:03.016Z,20.37
2018-05-29T20:38:30.493Z,22.17
2018-05-29T20:40:57.967Z,19.93
2018-05-29T20:43:25.451Z,19.87
2018-05-29T20:45:52.916Z,22.00
2018-05-29T20:48:21.156Z,22.40
2018-05-29T20:50:48.618Z,21.50
2018-05-29T20:53:16.130Z,23.20
2018-05-29T20:55:43.615Z,25.20
2018-05-29T20:58:11.365Z,23.00
2018-05-29T21:00:38.831Z,22.30
2018-05-29T21:03:06.309Z,21.73
2018-05-29T21:05:33.783Z,22.07
2018-05-29T21:08:01.354Z,22.90
2018-05-29T21:10:29.118Z,21.80
2018-05-29T21:12:56.587Z,21.93
2018-05-29T21:15:24.080Z,22.30
2018-05-29T21:17:52.176Z,21.57
2018-05-29T21:20:19.869Z,23.50
2018-05-29T21:22:47.348Z,22.27
2018-05-29T21:25:14.819Z,21.90
2018-05-29T21:27:42.559Z,20.90
2018-05-29T21:30:10.031Z,23.37
2018-05-29T21:32:37.700Z,22.67
2018-05-29T21:35:05.271Z,22.87
2018-05-29T21:37:32.949Z,22.27
2018-05-29T21:40:00.409Z,21.30
2018-05-29T21:42:27.887Z,20.40
2018-05-29T21:44:55.374Z,21.47
2018-05-29T21:47:22.844Z,20.60
2018-05-29T21:49:50.603Z,19.77
2018-05-29T21:52:18.060Z,18.47
2018-05-29T21:54:45.539Z,16.17
2018-05-29T21:57:13.002Z,14.53
2018-05-29T21:59:40.742Z,15.40
2018-05-29T22:02:08.508Z,14.57
2018-05-29T22:04:36.280Z,13.97
2018-05-29T22:07:03.755Z,13.53
2018-05-29T22:09:31.242Z,12.73
2018-05-29T22:11:58.715Z,14.47
2018-05-29T22:14:26.333Z,12.87
2018-05-29T22:16:53.871Z,13.10
2018-05-29T22:19:21.627Z,11.97
2018-05-29T22:21:50.718Z,12.70
2018-05-29T22:24:18.186Z,12.40
2018-05-29T22:26:45.643Z,13.23
2018-05-29T22:29:13.114Z,13.10
2018-05-29T22:31:41.342Z,12.37
2018-05-29T22:34:08.828Z,12.60
2018-05-29T22:36:37.827Z,12.10
2018-05-29T22:39:06.210Z,13.63
2018-05-29T22:41:35.206Z,12.67
2018-05-29T22:44:02.691Z,12.97
2018-05-29T22:46:30.167Z,13.07
2018-05-29T22:48:57.633Z,12.20
2018-05-29T22:51:25.134Z,13.17
2018-05-29T22:53:52.805Z,12.97
2018-05-29T22:56:20.281Z,12.70
2018-05-29T22:58:48.029Z,11.60
2018-05-29T23:01:17.023Z,11.13
2018-05-29T23:03:44.483Z,11.30
2018-05-29T23:06:12.244Z,11.20
2018-05-29T23:08:41.243Z,11.47
2018-05-29T23:11:09.010Z,11.50
2018-05-29T23:13:36.771Z,10.40
2018-05-29T23:16:04.238Z,11.80
2018-05-29T23:18:31.943Z,10.40
2018-05-29T23:20:59.486Z,10.17
2018-05-29T23:23:27.214Z,11.10
2018-05-29T23:25:54.674Z,11.00
2018-05-29T23:28:22.146Z,9.93
2018-05-29T23:30:50.426Z,10.60
2018-05-29T23:33:17.919Z,11.53
2018-05-29T23:35:45.585Z,12.07
2018-05-29T23:38:13.176Z,10.77
2018-05-29T23:40:40.636Z,10.47
2018-05-29T23:43:08.121Z,11.70
2018-05-29T23:45:35.583Z,11.43
2018-05-29T23:48:03.040Z,12.23
2018-05-29T23:50:30.489Z,11.50
2018-05-29T23:52:58.252Z,10.80
2018-05-29T23:55:25.708Z,10.80
2018-05-29T23:57:53.172Z,11.50
